Terminal Aerodrome Forecast
Issued by NWS

Home | Current Version | Previous Version | Text Only | Print | Product List | Glossary On
Versions: 1 2 3 4 5 6 7 8 9 10 11 12 13 14 15 16 17 18 19 20 21
000
FTUS45 KPSR 280500
TAFIWA
TAF
KIWA 280520Z 2806/2906 12004KT P6SM FEW200
     FM282000 29004KT P6SM BKN180
     FM290400 12005KT P6SM FEW150 SCT250
      AMD LTD TO CLD VIS AND WIND TIL 281300=

USA.gov is the U.S. government's official web portal to all federal, state and local government web resources and services.